WAOO/BDJ METAR and TAF weather

Enter ICAO airport designator
Station Type Date Time Source
WAOO METAR 2021/10/22 19:00 UTC NOAA

WAOO 221900Z AUTO 10003KT 9999 BKN027 OVC170 25/25 Q1011


Station Type Date Time Source
WAOO Decoded METAR 2021/10/22 19:00 UTC NOAA

Station name not available
Oct 22, 2021 - 03:00 PM EDT / 2021.10.22 1900 UTC
Wind: from the E (100 degrees) at 3 MPH (3 KT):0
Visibility: greater than 7 mile(s):0
Sky conditions: overcast
Temperature: 77 F (25 C)
Dew Point: 77 F (25 C)
Relative Humidity: 100%
Pressure (altimeter): 29.85 in. Hg (1011 hPa)
ob: WAOO 221900Z AUTO 10003KT 9999 BKN027 OVC170 25/25 Q1011
cycle: 19

Station Type Date Time Source
WAOO TAF 2021/10/22 18:30 UTC NOAA

TAF WAOO 221700Z 2218/2318 14006KT 9999 SCT018
TEMPO 2220/2224 3000 BR

Example: see airport list